• Join FlightAware (Why Join?)
  • Login
  • US Flag 
09:10PM EDT


 

Airport Tracker/Info


-or-


 

Live Flight TrackerFlight Track Log ✈ DAL4165 ✈ 21-Apr-2013 ✈ KOKC - KATL

Flight Track Log - Related Links

Times and Time Zones

All times are in EDT time to prevent confusion due to time zone crossing. See the DAL4165 flight status page for this flight to view local times or setup timezone preferences in your user account.

Time Position Orientation Groundspeed Altitude Reporting Facility
EDT Latitude Longitude Course Direction KTS MPH feet Rate Location/Type
07:15PM 35.3394 -97.5917 176° South 177 204 3,500  Level Fort Worth Center
07:16PM 35.2789 -97.5864 176° South 230 265 6,100 2,400 Climbing Fort Worth Center
07:17PM 35.4001 -97.0327 90° East  Level FlightAware Approximate
07:17PM 35.2539 -97.4897 108° East 357 411 8,700  Level Fort Worth Center
07:18PM 35.4000 -96.8906 90° East  Level FlightAware Approximate
07:18PM 35.2519 -97.3831 91° East 325 374 11,200  Level Fort Worth Center
07:19PM 35.4000 -96.7485 90° East  Level FlightAware Approximate
07:19PM 35.2561 -97.2636 88° East 326 375 12,600  Level Fort Worth Center
07:20PM 35.4000 -96.6064 90° East  Level FlightAware Approximate
07:20PM 35.2600 -97.1289 88° East 354 407 14,500  Level Fort Worth Center
07:21PM 35.2678 -96.9914 86° East 385 443 15,000 240 Climbing Fort Worth Center
07:22PM 35.2758 -96.8542 86° East 398 458 15,000 900 Level Fort Worth Center
07:23PM 35.2833 -96.7092 86° East 414 476 16,900 1,740 Climbing Fort Worth Center
07:24PM 35.2908 -96.5642 86° East 420 483 18,500 1,620 Climbing Fort Worth Center
07:25PM 35.2981 -96.4089 87° East 430 495 20,200 1,500 Climbing Fort Worth Center
07:26PM 35.3050 -96.2536 87° East 445 512 21,600 1,200 Climbing Fort Worth Center
07:27PM 35.3139 -96.0931 86° East 462 532 22,700 1,260 Climbing Fort Worth Center
07:28PM 35.3203 -95.9278 87° East 473 544 24,200 1,440 Climbing Fort Worth Center
07:29PM 35.3308 -95.7647 85° East 478 550 25,600 1,080 Climbing Fort Worth Center
07:30PM 35.3389 -95.5939 87° East 483 556 26,400 900 Climbing Fort Worth Center
07:31PM 35.3467 -95.4233 87° East 494 568 27,400 1,080 Climbing Fort Worth Center
07:32PM 35.3519 -95.2422 88° East 513 590 28,700 1,320 Climbing Memphis Center
07:33PM 35.3586 -95.0669 87° East 513 590 30,200 1,260 Climbing Memphis Center
07:34PM 35.3650 -94.8942 87° East 513 590 31,300 1,020 Climbing Memphis Center
07:35PM 35.3733 -94.7164 87° East 518 596 32,300 960 Climbing Memphis Center
07:36PM 35.3769 -94.5536 88° East 518 596 33,300 960 Climbing Memphis Center
07:37PM 35.3853 -94.3606 87° East 518 596 34,300 840 Climbing Memphis Center
07:38PM 35.3786 -94.1742 92° East 523 602 35,000 300 Climbing Memphis Center
07:39PM 35.3675 -93.9903 94° East 539 620 35,000  Level Memphis Center
07:40PM 35.3542 -93.8039 95° East 544 626 35,000  Level Memphis Center
07:41PM 35.3403 -93.6175 95° East 549 632 35,000  Level Memphis Center
07:42PM 35.3264 -93.4314 95° East 549 632 35,000  Level Memphis Center
07:43PM 35.3144 -93.2325 94° East 544 626 35,000  Level Memphis Center
07:44PM 35.2997 -93.0486 96° East 539 620 35,000  Level Memphis Center
07:45PM 35.2828 -92.8625 96° East 544 626 35,000  Level Memphis Center
07:46PM 35.2656 -92.6686 96° East 552 635 35,000  Level Memphis Center
07:47PM 35.2519 -92.4903 95° East 558 642 35,000  Level Memphis Center
07:48PM 35.2342 -92.3044 97° East 548 631 35,000  Level Memphis Center
07:49PM 35.2181 -92.1208 96° East 543 625 35,000  Level Memphis Center
07:50PM 35.2039 -91.9403 95° East 543 625 35,000  Level Memphis Center
07:51PM 35.1875 -91.7519 96° East 538 619 35,000  Level Memphis Center
07:52PM 35.1706 -91.5686 96° East 538 619 35,000  Level Memphis Center
07:53PM 35.1533 -91.3856 97° East 538 619 35,000  Level Memphis Center
07:54PM 35.1419 -91.2231 95° East 538 619 35,000  Level Memphis Center
07:55PM 35.1244 -91.0425 97° East 538 619 35,000  Level Memphis Center
07:56PM 35.1044 -90.8469 97° East 538 619 35,000  Level Memphis Center
07:57PM 35.0842 -90.6667 98° East 538 619 35,000  Level Memphis Center
07:58PM 35.0678 -90.4864 96° East 538 619 35,000  Level Memphis Center
07:59PM 35.0492 -90.3064 97° East 538 619 35,000  Level Memphis Center
08:00PM 35.0322 -90.1264 97° East 538 619 35,000  Level Memphis Center
08:01PM 35.0128 -89.9489 98° East 538 619 35,000  Level Memphis Center
08:02PM 34.9936 -89.7842 98° East 538 619 35,000  Level Memphis Center
08:03PM 34.9633 -89.6044 102° East 551 634 35,000  Level Memphis Center
08:04PM 34.9328 -89.4250 102° East 539 620 35,000  Level Memphis Center
08:05PM 34.9019 -89.2253 101° East 539 620 35,000  Level Memphis Center
08:06PM 34.8753 -89.0483 100° East 540 621 35,000  Level Memphis Center
08:07PM 34.8481 -88.8692 100° East 540 621 35,000  Level Memphis Center
08:08PM 34.8208 -88.6925 101° East 540 621 35,000  Level Memphis Center
08:09PM 34.7933 -88.5136 101° East 540 621 35,000  Level Memphis Center
08:10PM 34.7681 -88.3600 101° East 534 615 35,000  Level Memphis Center
08:11PM 34.7375 -88.1583 100° East 534 615 35,000  Level Memphis Center
08:12PM 34.7092 -87.9822 101° East 541 623 35,000  Level Memphis Center
08:13PM 34.6831 -87.8239 101° East 541 623 35,000  Level Memphis Center
08:14PM 34.6542 -87.6456 101° East 541 623 35,000 -720 Level Memphis Center
08:16PM 34.5981 -87.3167 102° East 533 613 33,000 -720 Descending Atlanta Center
08:17PM 34.5628 -87.1414 104° East 528 608 33,000  Level Atlanta Center
08:18PM 34.5317 -86.9711 102° East 523 602 33,000 -300 Level Atlanta Center
08:19PM 34.5000 -86.8039 103° East 523 602 32,400 -1,260 Descending Atlanta Center
08:20PM 34.4681 -86.6414 103° East 505 581 30,500 -1,860 Descending Atlanta Center
08:21PM 34.4378 -86.4894 104° East 482 555 28,700 -1,800 Descending Atlanta Center
08:22PM 34.4094 -86.3400 103° East 461 531 26,900 -1,860 Descending Atlanta Center
08:23PM 34.3806 -86.1933 103° East 454 522 25,000 -1,500 Descending Atlanta Center
08:24PM 34.3519 -86.0492 103° East 449 517 24,000 -840 Descending Atlanta Center
08:25PM 34.3228 -85.9050 104° East 444 511 23,400 -1,320 Descending Atlanta Center
08:26PM 34.2936 -85.7586 104° East 425 489 21,400 -1,980 Descending Atlanta Center
08:27PM 34.2683 -85.6300 103° East 402 463 19,500 -1,800 Descending Atlanta Center
08:28PM 34.2428 -85.5014 103° East 391 450 17,800 -1,500 Descending Atlanta Center
08:29PM 34.2169 -85.3778 104° East 381 438 16,500 -1,500 Descending Atlanta Center
08:30PM 34.1931 -85.2594 104° East 373 429 14,900 -1,500 Descending Atlanta Center
08:31PM 34.1672 -85.1433 105° East 364 419 13,600 -960 Descending Atlanta Center
08:32PM 34.1136 -85.0575 127° Southeast 340 391 13,000 -540 Descending Atlanta Center
08:33PM 34.0536 -84.9792 133° Southeast 318 366 12,600 -660 Descending Atlanta Center
08:34PM 33.9894 -84.9206 143° Southeast 299 344 11,700 -1,200 Descending Atlanta Center
08:35PM 33.9186 -84.8950 163° South 274 315 10,200 -1,380 Descending Atlanta Center
08:36PM 33.8456 -84.8892 176° South 268 308 9,000 -600 Descending Atlanta Center
08:37PM 33.7872 -84.8911 182° South 254 292 9,000 -420 Level Atlanta Center
08:38PM 33.7225 -84.8956 183° South 238 274 8,200 -1,200 Descending Atlanta Center
08:39PM 33.6661 -84.8875 173° South 220 253 6,600 -1,320 Descending Atlanta Center
08:39PM 33.6500 -84.8333 110° East 208 239 6,000 -360 Descending Atlanta TRACON
08:41PM 33.6333 -84.7500 103° East 207 238 6,000 -600 Level Atlanta TRACON
08:42PM 33.6333 -84.6833 90° East 205 236 4,800 -1,080 Descending Atlanta TRACON
08:43PM 33.6333 -84.6167 90° East 197 227 3,900 -900 Descending Atlanta TRACON